createdAt,value
2019-05-10T00:00:36.954Z,8.97
2019-05-10T00:03:23.452Z,8.89
2019-05-10T00:06:09.935Z,8.89
2019-05-10T00:08:47.079Z,8.78
2019-05-10T00:11:28.650Z,8.68
2019-05-10T00:14:15.417Z,8.60
2019-05-10T00:16:45.209Z,8.54
2019-05-10T00:19:13.605Z,8.47
2019-05-10T00:21:42.032Z,8.49
2019-05-10T00:24:10.428Z,8.44
2019-05-10T00:26:39.246Z,8.44
2019-05-10T00:29:07.904Z,8.47
2019-05-10T00:31:36.363Z,8.46
2019-05-10T00:34:04.921Z,8.46
2019-05-10T00:36:33.341Z,8.44
2019-05-10T00:39:01.774Z,8.39
2019-05-10T00:41:30.154Z,8.34
2019-05-10T00:43:58.572Z,8.31
2019-05-10T00:46:26.959Z,8.22
2019-05-10T00:48:55.660Z,8.13
2019-05-10T00:51:24.153Z,8.04
2019-05-10T00:53:52.545Z,7.96
2019-05-10T00:56:20.935Z,7.85
2019-05-10T00:58:49.350Z,7.76
2019-05-10T01:01:18.801Z,7.67
2019-05-10T01:03:47.217Z,7.59
2019-05-10T01:06:15.631Z,7.55
2019-05-10T01:08:44.342Z,7.49
2019-05-10T01:11:13.007Z,7.45
2019-05-10T01:13:41.444Z,7.48
2019-05-10T01:16:09.901Z,7.46
2019-05-10T01:18:38.293Z,7.46
2019-05-10T01:21:06.706Z,7.48
2019-05-10T01:23:35.091Z,7.43
2019-05-10T01:26:03.478Z,7.39
2019-05-10T01:28:31.900Z,7.32
2019-05-10T01:31:00.283Z,7.27
2019-05-10T01:33:28.675Z,7.23
2019-05-10T01:35:57.249Z,7.14
2019-05-10T01:38:25.641Z,7.05
2019-05-10T01:40:54.026Z,7.03
2019-05-10T01:43:22.440Z,6.97
2019-05-10T01:45:50.839Z,6.94
2019-05-10T01:48:19.226Z,6.92
2019-05-10T01:50:47.647Z,6.90
2019-05-10T01:53:16.038Z,6.89
2019-05-10T01:55:52.147Z,6.91
2019-05-10T01:58:14.852Z,6.93
2019-05-10T02:00:43.235Z,6.94
2019-05-10T02:03:11.624Z,6.95
2019-05-10T02:05:40.044Z,6.93
2019-05-10T02:08:08.434Z,6.93
2019-05-10T02:10:36.819Z,6.87
2019-05-10T02:13:05.227Z,6.84
2019-05-10T02:15:33.913Z,6.81
2019-05-10T02:18:02.302Z,6.82
2019-05-10T02:20:30.724Z,6.83
2019-05-10T02:22:59.143Z,6.81
2019-05-10T02:25:27.503Z,6.73
2019-05-10T02:27:55.919Z,6.64
2019-05-10T02:30:24.308Z,6.66
2019-05-10T02:32:52.693Z,6.70
2019-05-10T02:35:21.097Z,6.69
2019-05-10T02:37:49.487Z,6.73
2019-05-10T02:40:18.237Z,6.75
2019-05-10T02:42:46.679Z,6.76
2019-05-10T02:45:15.500Z,6.74
2019-05-10T02:47:43.886Z,6.66
2019-05-10T02:50:12.832Z,6.58
2019-05-10T02:52:41.217Z,6.46
2019-05-10T02:55:10.982Z,6.34
2019-05-10T02:57:39.774Z,6.20
2019-05-10T03:00:09.439Z,6.05
2019-05-10T03:02:38.568Z,5.92
2019-05-10T03:05:07.626Z,5.82
2019-05-10T03:07:38.223Z,5.71
2019-05-10T03:10:09.317Z,5.57
2019-05-10T03:12:40.524Z,5.48
2019-05-10T03:15:11.481Z,5.45
2019-05-10T03:17:41.481Z,5.43
2019-05-10T03:20:10.631Z,5.41
2019-05-10T03:22:43.628Z,5.35
2019-05-10T03:25:13.816Z,5.30
2019-05-10T03:27:42.528Z,5.29
2019-05-10T03:30:11.663Z,5.31
2019-05-10T03:32:40.050Z,5.29
2019-05-10T03:35:08.996Z,5.26
2019-05-10T03:37:37.382Z,5.23
2019-05-10T03:40:10.057Z,5.19
2019-05-10T03:42:38.460Z,5.15
2019-05-10T03:45:07.800Z,5.13
2019-05-10T03:47:36.209Z,5.09
2019-05-10T03:50:06.641Z,5.06
2019-05-10T03:52:35.023Z,5.03
2019-05-10T03:55:03.699Z,4.97
2019-05-10T03:57:32.081Z,4.92
2019-05-10T04:00:00.486Z,4.88
2019-05-10T04:02:28.950Z,4.84
2019-05-10T04:04:57.340Z,4.81
2019-05-10T04:07:25.738Z,4.79
2019-05-10T04:09:54.148Z,4.79
2019-05-10T04:12:22.532Z,4.80
2019-05-10T04:14:50.923Z,4.80
2019-05-10T04:17:19.329Z,4.78
2019-05-10T04:19:47.717Z,4.70
2019-05-10T04:22:16.144Z,4.66
2019-05-10T04:24:44.530Z,4.56
2019-05-10T04:27:30.632Z,4.52
2019-05-10T04:29:43.138Z,4.45
2019-05-10T04:32:11.522Z,4.42
2019-05-10T04:34:39.913Z,4.38
2019-05-10T04:37:08.328Z,4.37
2019-05-10T04:39:37.020Z,4.36
2019-05-10T04:42:05.426Z,4.44
2019-05-10T04:44:33.838Z,4.47
2019-05-10T04:47:02.230Z,4.44
2019-05-10T04:49:30.619Z,4.40
2019-05-10T04:51:59.155Z,4.43
2019-05-10T04:54:27.538Z,4.54
2019-05-10T04:56:59.975Z,4.71
2019-05-10T04:59:26.055Z,4.87
2019-05-10T05:01:54.696Z,5.06
2019-05-10T05:04:23.086Z,5.14
2019-05-10T05:06:51.490Z,5.27
2019-05-10T05:09:20.020Z,5.44
2019-05-10T05:11:48.418Z,5.59
2019-05-10T05:14:16.827Z,5.73
2019-05-10T05:16:45.228Z,5.82
2019-05-10T05:19:13.937Z,5.96
2019-05-10T05:21:42.350Z,6.12
2019-05-10T05:24:11.031Z,6.35
2019-05-10T05:26:40.836Z,6.52
2019-05-10T05:29:09.244Z,6.67
2019-05-10T05:31:37.639Z,6.82
2019-05-10T05:34:06.436Z,7.23
2019-05-10T05:36:34.823Z,7.62
2019-05-10T05:39:04.692Z,8.02
2019-05-10T05:41:47.609Z,8.41
2019-05-10T05:44:03.559Z,8.79
2019-05-10T05:46:31.956Z,9.14
2019-05-10T05:49:00.348Z,9.31
2019-05-10T05:51:28.812Z,9.58
2019-05-10T05:53:57.175Z,9.77
2019-05-10T05:56:25.746Z,9.88
2019-05-10T05:58:54.166Z,9.95
2019-05-10T06:01:26.196Z,10.20
2019-05-10T06:03:52.683Z,10.43
2019-05-10T06:06:23.205Z,10.69
2019-05-10T06:08:54.559Z,10.83
2019-05-10T06:11:21.334Z,10.80
2019-05-10T06:13:49.745Z,10.86
2019-05-10T06:16:18.142Z,10.89
2019-05-10T06:18:47.283Z,11.14
2019-05-10T06:21:17.756Z,11.43
2019-05-10T06:23:46.805Z,11.58
2019-05-10T06:26:26.243Z,11.58
2019-05-10T06:28:58.272Z,11.45
2019-05-10T06:31:15.472Z,11.50
2019-05-10T06:33:44.992Z,11.67
2019-05-10T06:36:14.021Z,11.78
2019-05-10T06:38:42.487Z,12.00
2019-05-10T06:41:16.716Z,12.02
2019-05-10T06:43:45.696Z,11.93
2019-05-10T06:46:11.147Z,11.92
2019-05-10T06:48:39.536Z,11.71
2019-05-10T06:51:09.707Z,11.62
2019-05-10T06:53:41.577Z,11.29
2019-05-10T06:56:08.539Z,11.40
2019-05-10T06:58:38.501Z,11.29
2019-05-10T07:01:06.929Z,11.50
2019-05-10T07:03:36.121Z,11.65
2019-05-10T07:06:04.533Z,11.93
2019-05-10T07:08:43.599Z,11.92
2019-05-10T07:11:03.045Z,12.11
2019-05-10T07:13:31.621Z,12.26
2019-05-10T07:16:00.015Z,12.40
2019-05-10T07:18:28.405Z,12.56
2019-05-10T07:21:00.943Z,12.60
2019-05-10T07:23:29.957Z,12.84
2019-05-10T07:25:57.072Z,12.86
2019-05-10T07:28:25.504Z,12.99
2019-05-10T07:30:54.128Z,13.17
2019-05-10T07:33:22.522Z,13.26
2019-05-10T07:35:51.006Z,13.10
2019-05-10T07:38:27.853Z,13.19
2019-05-10T07:40:49.456Z,13.33
2019-05-10T07:43:25.796Z,13.53
2019-05-10T07:45:48.139Z,13.87
2019-05-10T07:48:16.882Z,14.10
2019-05-10T07:50:49.177Z,14.07
2019-05-10T07:53:16.193Z,13.75
2019-05-10T07:55:45.898Z,13.98
2019-05-10T07:58:14.312Z,14.26
2019-05-10T08:00:44.269Z,14.28
2019-05-10T08:03:16.761Z,14.27
2019-05-10T08:05:46.410Z,14.33
2019-05-10T08:08:13.421Z,14.77
2019-05-10T08:10:42.042Z,15.08
2019-05-10T08:13:10.457Z,15.29
2019-05-10T08:15:38.846Z,15.30
2019-05-10T08:18:09.649Z,15.48
2019-05-10T08:20:49.198Z,15.65
2019-05-10T08:23:07.505Z,15.46
2019-05-10T08:25:40.980Z,15.70
2019-05-10T08:28:06.060Z,15.84
2019-05-10T08:30:42.582Z,15.85
2019-05-10T08:33:09.971Z,15.51
2019-05-10T08:35:41.162Z,15.32
2019-05-10T08:38:08.834Z,15.31
2019-05-10T08:40:38.166Z,15.55
2019-05-10T08:43:09.729Z,15.71
2019-05-10T08:45:38.795Z,15.34
2019-05-10T08:48:07.326Z,15.58
2019-05-10T08:50:49.670Z,15.29
2019-05-10T08:53:11.172Z,15.38
2019-05-10T08:55:35.974Z,15.42
2019-05-10T08:58:04.469Z,15.50
2019-05-10T09:00:45.178Z,15.48
2019-05-10T09:03:09.575Z,15.76
2019-05-10T09:05:34.056Z,15.87
2019-05-10T09:08:05.671Z,15.72
2019-05-10T09:10:33.035Z,15.79
2019-05-10T09:13:03.297Z,15.81
2019-05-10T09:15:33.131Z,15.56
2019-05-10T09:18:04.454Z,15.86
2019-05-10T09:20:32.076Z,15.85
2019-05-10T09:23:02.380Z,15.96
2019-05-10T09:25:31.617Z,15.80
2019-05-10T09:28:10.621Z,16.08
2019-05-10T09:30:35.445Z,15.92
2019-05-10T09:33:08.591Z,16.37
2019-05-10T09:35:38.916Z,16.38
2019-05-10T09:38:04.796Z,16.44
2019-05-10T09:40:33.259Z,16.33
2019-05-10T09:43:07.366Z,16.43
2019-05-10T09:45:32.401Z,16.45
2019-05-10T09:48:02.484Z,16.55
2019-05-10T09:50:41.445Z,16.55
2019-05-10T09:53:01.173Z,16.60
2019-05-10T09:55:29.562Z,16.77
2019-05-10T09:57:58.420Z,16.83
2019-05-10T10:00:34.265Z,16.82
2019-05-10T10:03:03.226Z,16.65
2019-05-10T10:05:31.620Z,16.53
2019-05-10T10:08:03.681Z,16.39
2019-05-10T10:10:32.535Z,16.35
2019-05-10T10:13:08.451Z,16.47
2019-05-10T10:15:34.231Z,16.55
2019-05-10T10:18:00.782Z,16.48
2019-05-10T10:20:30.013Z,16.28
2019-05-10T10:22:58.846Z,16.30
2019-05-10T10:25:29.958Z,16.34
2019-05-10T10:27:57.514Z,16.37
2019-05-10T10:30:27.252Z,16.28
2019-05-10T10:32:58.086Z,16.34
2019-05-10T10:35:29.423Z,16.50
2019-05-10T10:37:57.373Z,16.61
2019-05-10T10:40:27.919Z,16.69
2019-05-10T10:42:57.740Z,16.70
2019-05-10T10:45:27.708Z,16.61
2019-05-10T10:47:57.324Z,16.66
2019-05-10T10:50:27.508Z,16.88
2019-05-10T10:52:57.499Z,16.91
2019-05-10T10:55:32.444Z,16.99
2019-05-10T10:57:57.699Z,17.08
2019-05-10T11:00:34.400Z,17.28
2019-05-10T11:03:04.908Z,17.36
2019-05-10T11:05:33.360Z,17.44
2019-05-10T11:08:01.784Z,17.36
2019-05-10T11:10:31.616Z,17.65
2019-05-10T11:13:02.364Z,17.73
2019-05-10T11:15:35.878Z,17.74
2019-05-10T11:18:00.694Z,17.96
2019-05-10T11:20:31.480Z,18.04
2019-05-10T11:22:59.219Z,17.92
2019-05-10T11:25:27.609Z,17.82
2019-05-10T11:27:58.756Z,17.74
2019-05-10T11:30:26.142Z,17.89
2019-05-10T11:32:54.527Z,17.82
2019-05-10T11:35:28.477Z,17.98
2019-05-10T11:37:53.330Z,17.83
2019-05-10T11:40:30.288Z,18.19
2019-05-10T11:42:51.912Z,18.40
2019-05-10T11:45:26.117Z,18.45
2019-05-10T11:47:54.418Z,18.21
2019-05-10T11:50:31.552Z,18.05
2019-05-10T11:52:51.880Z,18.02
2019-05-10T11:55:21.607Z,18.02
2019-05-10T11:58:01.533Z,18.20
2019-05-10T12:00:29.249Z,18.10
2019-05-10T12:03:11.307Z,18.06
2019-05-10T12:05:26.331Z,18.02
2019-05-10T12:07:54.147Z,18.00
2019-05-10T12:10:25.570Z,17.90
2019-05-10T12:15:25.358Z,18.00
2019-05-10T12:17:58.628Z,18.21
2019-05-10T12:20:29.468Z,18.32
2019-05-10T12:22:52.296Z,18.49
2019-05-10T12:26:31.162Z,17.89
2019-05-10T12:26:50.411Z,18.61
2019-05-10T12:27:52.415Z,18.92
2019-05-10T12:30:21.754Z,18.93
2019-05-10T12:32:56.001Z,18.77
2019-05-10T12:35:21.415Z,18.64
2019-05-10T12:37:54.014Z,18.43
2019-05-10T12:40:23.784Z,18.30
2019-05-10T12:42:50.619Z,18.08
2019-05-10T12:45:22.857Z,17.86
2019-05-10T12:47:51.850Z,17.84
2019-05-10T12:50:22.313Z,17.96
2019-05-10T12:53:03.134Z,17.96
2019-05-10T12:55:20.996Z,17.95
2019-05-10T12:57:49.386Z,18.03
2019-05-10T13:00:17.946Z,18.35
2019-05-10T13:02:51.443Z,18.35
2019-05-10T13:05:16.517Z,18.41
2019-05-10T13:07:44.959Z,18.54
2019-05-10T13:10:13.968Z,18.68
2019-05-10T13:12:46.868Z,18.80
2019-05-10T13:15:14.902Z,18.97
2019-05-10T13:17:50.236Z,19.09
2019-05-10T13:20:13.946Z,18.98
2019-05-10T13:22:42.356Z,19.15
2019-05-10T13:25:11.116Z,19.16
2019-05-10T13:27:39.545Z,19.13
2019-05-10T13:30:10.636Z,18.85
2019-05-10T13:32:39.033Z,18.59
2019-05-10T13:35:08.265Z,18.71
2019-05-10T13:37:36.683Z,18.96
2019-05-10T13:40:08.082Z,19.25
2019-05-10T13:42:43.387Z,19.22
2019-05-10T13:45:07.395Z,18.81
2019-05-10T13:47:35.788Z,18.65
2019-05-10T13:50:06.359Z,18.83
2019-05-10T13:52:40.701Z,18.98
2019-05-10T13:55:06.336Z,19.07
2019-05-10T13:57:34.725Z,19.37
2019-05-10T14:00:05.050Z,19.44
2019-05-10T14:02:34.877Z,19.27
2019-05-10T14:05:04.158Z,19.00
2019-05-10T14:07:33.043Z,18.90
2019-05-10T14:10:01.467Z,18.81
2019-05-10T14:12:29.829Z,18.68
2019-05-10T14:15:02.521Z,18.69
2019-05-10T14:17:28.441Z,18.88
2019-05-10T14:19:57.164Z,18.88
2019-05-10T14:22:28.365Z,18.74
2019-05-10T14:24:59.161Z,18.65
2019-05-10T14:27:30.048Z,18.55
2019-05-10T14:29:56.375Z,18.54
2019-05-10T14:32:24.776Z,18.68
2019-05-10T14:34:53.169Z,18.70
2019-05-10T14:37:21.745Z,18.49
2019-05-10T14:39:50.305Z,18.66
2019-05-10T14:42:23.986Z,18.82
2019-05-10T14:44:49.406Z,18.81
2019-05-10T14:47:17.792Z,18.68
2019-05-10T14:49:47.210Z,18.64
2019-05-10T14:52:16.375Z,18.62
2019-05-10T14:54:49.770Z,18.69
2019-05-10T14:57:14.866Z,18.62
2019-05-10T14:59:43.272Z,18.67
2019-05-10T15:02:16.796Z,18.89
2019-05-10T15:04:44.996Z,18.93
2019-05-10T15:07:14.458Z,18.97
2019-05-10T15:09:42.109Z,19.01
2019-05-10T15:12:16.311Z,19.08
2019-05-10T15:14:40.650Z,19.10
2019-05-10T15:17:09.306Z,19.18
2019-05-10T15:19:37.701Z,19.17
2019-05-10T15:22:06.147Z,19.06
2019-05-10T15:24:34.533Z,18.99
2019-05-10T15:27:02.930Z,18.99
2019-05-10T15:29:31.360Z,19.14
2019-05-10T15:31:59.837Z,19.19
2019-05-10T15:34:28.232Z,19.19
2019-05-10T15:36:56.645Z,19.14
2019-05-10T15:39:29.015Z,19.05
2019-05-10T15:41:59.184Z,18.92
2019-05-10T15:44:31.455Z,18.89
2019-05-10T15:46:55.415Z,18.85
2019-05-10T15:49:24.617Z,18.89
2019-05-10T15:51:55.314Z,19.02
2019-05-10T15:54:23.226Z,19.05
2019-05-10T15:56:55.232Z,19.15
2019-05-10T15:59:21.849Z,19.20
2019-05-10T16:01:50.219Z,19.07
2019-05-10T16:04:18.609Z,18.99
2019-05-10T16:06:47.032Z,19.00
2019-05-10T16:09:18.906Z,18.99
2019-05-10T16:11:45.809Z,18.95
2019-05-10T16:14:14.226Z,18.87
2019-05-10T16:16:42.626Z,18.88
2019-05-10T16:19:12.952Z,18.81
2019-05-10T16:21:41.232Z,18.76
2019-05-10T16:24:09.622Z,18.75
2019-05-10T16:26:38.012Z,18.78
2019-05-10T16:29:06.444Z,18.68
2019-05-10T16:31:34.836Z,18.68
2019-05-10T16:34:03.232Z,18.58
2019-05-10T16:36:31.743Z,18.56
2019-05-10T16:39:01.805Z,18.49
2019-05-10T16:41:30.742Z,18.53
2019-05-10T16:44:00.182Z,18.29
2019-05-10T16:46:28.735Z,18.12
2019-05-10T16:48:57.132Z,17.96
2019-05-10T16:51:25.538Z,17.93
2019-05-10T16:53:53.930Z,17.89
2019-05-10T16:56:22.319Z,17.92
2019-05-10T16:58:53.195Z,17.86
2019-05-10T17:01:25.132Z,17.65
2019-05-10T17:03:59.146Z,17.59
2019-05-10T17:06:21.138Z,17.56
2019-05-10T17:08:49.533Z,17.48
2019-05-10T17:11:17.945Z,17.49
2019-05-10T17:13:46.346Z,17.50
2019-05-10T17:16:17.200Z,17.48
2019-05-10T17:18:50.059Z,17.42
2019-05-10T17:21:14.996Z,17.28
2019-05-10T17:23:46.955Z,17.14
2019-05-10T17:26:13.516Z,17.01
2019-05-10T17:28:41.934Z,16.92
2019-05-10T17:31:10.331Z,16.82
2019-05-10T17:33:42.655Z,16.74
2019-05-10T17:36:09.127Z,16.68
2019-05-10T17:38:37.702Z,16.67
2019-05-10T17:41:06.090Z,16.67
2019-05-10T17:43:34.510Z,16.67
2019-05-10T17:46:02.908Z,16.65
2019-05-10T17:48:31.302Z,16.69
2019-05-10T17:50:59.714Z,16.70
2019-05-10T17:53:28.111Z,16.72
2019-05-10T17:56:02.196Z,16.76
2019-05-10T17:58:27.929Z,16.81
2019-05-10T18:00:56.749Z,16.80
2019-05-10T18:03:25.139Z,16.80
2019-05-10T18:05:53.741Z,16.80
2019-05-10T18:08:22.141Z,16.76
2019-05-10T18:10:50.551Z,16.72
2019-05-10T18:13:18.946Z,16.67
2019-05-10T18:15:47.346Z,16.67
2019-05-10T18:18:16.719Z,16.67
2019-05-10T18:20:45.141Z,16.61
2019-05-10T18:23:20.174Z,16.63
2019-05-10T18:25:43.648Z,16.59
2019-05-10T18:28:12.070Z,16.48
2019-05-10T18:30:40.473Z,16.37
2019-05-10T18:33:12.171Z,16.23
2019-05-10T18:35:40.179Z,16.11
2019-05-10T18:38:08.516Z,15.99
2019-05-10T18:40:36.908Z,15.84
2019-05-10T18:43:05.883Z,15.69
2019-05-10T18:45:34.359Z,15.50
2019-05-10T18:48:02.773Z,15.35
2019-05-10T18:50:31.263Z,15.24
2019-05-10T18:52:59.659Z,15.09
2019-05-10T18:55:28.056Z,14.95
2019-05-10T18:57:56.738Z,14.81
2019-05-10T19:00:25.500Z,14.69
2019-05-10T19:02:55.618Z,14.58
2019-05-10T19:05:31.675Z,14.47
2019-05-10T19:08:03.284Z,14.38
2019-05-10T19:10:24.329Z,14.31
2019-05-10T19:13:00.297Z,14.25
2019-05-10T19:15:23.193Z,14.24
2019-05-10T19:17:51.576Z,14.26
2019-05-10T19:20:20.070Z,14.28
2019-05-10T19:22:48.462Z,14.26
2019-05-10T19:25:16.859Z,14.23
2019-05-10T19:27:50.612Z,14.11
2019-05-10T19:30:20.198Z,13.94
2019-05-10T19:32:51.276Z,13.69
2019-05-10T19:35:16.417Z,13.43
2019-05-10T19:37:44.812Z,13.20
2019-05-10T19:40:13.373Z,13.04
2019-05-10T19:42:43.123Z,12.89
2019-05-10T19:45:18.685Z,12.75
2019-05-10T19:47:42.658Z,12.76
2019-05-10T19:50:11.412Z,12.68
2019-05-10T19:52:39.808Z,12.57
2019-05-10T19:55:13.172Z,12.42
2019-05-10T19:57:38.418Z,12.28
2019-05-10T20:00:11.280Z,12.15
2019-05-10T20:02:39.687Z,12.03
2019-05-10T20:05:08.367Z,11.97
2019-05-10T20:07:45.399Z,11.99
2019-05-10T20:10:08.176Z,12.06
2019-05-10T20:12:36.831Z,11.98
2019-05-10T20:15:09.049Z,11.84
2019-05-10T20:17:37.639Z,11.68
2019-05-10T20:20:07.785Z,11.52
2019-05-10T20:22:36.570Z,11.39
2019-05-10T20:25:06.695Z,11.37
2019-05-10T20:27:35.110Z,11.37
2019-05-10T20:30:04.450Z,11.29
2019-05-10T20:32:32.863Z,11.22
2019-05-10T20:35:01.562Z,11.11
2019-05-10T20:37:29.938Z,11.03
2019-05-10T20:39:58.348Z,10.96
2019-05-10T20:42:26.786Z,10.96
2019-05-10T20:45:06.751Z,11.00
2019-05-10T20:47:25.293Z,11.01
2019-05-10T20:49:53.732Z,11.04
2019-05-10T20:52:22.150Z,11.10
2019-05-10T20:54:50.536Z,11.10
2019-05-10T20:57:18.950Z,11.03
2019-05-10T20:59:47.343Z,10.97
2019-05-10T21:02:15.736Z,10.88
2019-05-10T21:04:44.188Z,10.89
2019-05-10T21:10:08.538Z,11.00
2019-05-10T21:12:36.925Z,11.13
2019-05-10T21:15:08.922Z,11.14
2019-05-10T21:17:37.326Z,11.01
2019-05-10T21:20:07.249Z,10.90
2019-05-10T21:22:35.637Z,10.84
2019-05-10T21:25:06.262Z,10.90
2019-05-10T21:27:34.651Z,11.05
2019-05-10T21:30:04.346Z,11.04
2019-05-10T21:32:32.859Z,10.96
2019-05-10T21:35:01.248Z,10.84
2019-05-10T21:37:29.639Z,10.70
2019-05-10T21:39:58.053Z,10.55
2019-05-10T21:42:26.443Z,10.46
2019-05-10T21:44:54.836Z,10.43
2019-05-10T21:47:23.250Z,10.40
2019-05-10T21:49:52.037Z,10.38
2019-05-10T21:52:20.436Z,10.34
2019-05-10T21:54:48.865Z,10.27
2019-05-10T21:57:17.254Z,10.24
2019-05-10T21:59:45.650Z,10.22
2019-05-10T22:02:14.132Z,10.25
2019-05-10T22:04:42.867Z,10.25
2019-05-10T22:07:11.257Z,10.22
2019-05-10T22:09:39.679Z,10.20
2019-05-10T22:12:08.404Z,10.17
2019-05-10T22:14:36.793Z,10.14
2019-05-10T22:17:05.776Z,10.07
2019-05-10T22:19:34.161Z,9.99
2019-05-10T22:22:02.587Z,9.90
2019-05-10T22:24:31.054Z,9.80
2019-05-10T22:26:59.700Z,9.75
2019-05-10T22:29:28.396Z,9.75
2019-05-10T22:31:56.813Z,9.72
2019-05-10T22:34:25.268Z,9.71
2019-05-10T22:36:53.674Z,9.69
2019-05-10T22:39:22.345Z,9.67
2019-05-10T22:41:52.994Z,9.66
2019-05-10T22:44:20.846Z,9.72
2019-05-10T22:46:49.261Z,9.73
2019-05-10T22:49:17.653Z,9.73
2019-05-10T22:51:46.048Z,9.72
2019-05-10T22:54:14.473Z,9.70
2019-05-10T22:56:42.863Z,9.66
2019-05-10T22:59:14.096Z,9.61
2019-05-10T23:01:42.667Z,9.59
2019-05-10T23:04:11.069Z,9.59
2019-05-10T23:06:39.453Z,9.63
2019-05-10T23:09:23.448Z,9.70
2019-05-10T23:11:38.836Z,9.70
2019-05-10T23:14:07.294Z,9.69
2019-05-10T23:16:35.701Z,9.67
2019-05-10T23:19:04.087Z,9.61
2019-05-10T23:21:32.482Z,9.58
2019-05-10T23:24:02.535Z,9.58
2019-05-10T23:26:30.920Z,9.56
2019-05-10T23:28:59.309Z,9.55
2019-05-10T23:31:27.732Z,9.52
2019-05-10T23:33:56.358Z,9.52
2019-05-10T23:36:24.753Z,9.51
2019-05-10T23:38:53.530Z,9.50
2019-05-10T23:41:21.918Z,9.52
2019-05-10T23:43:50.335Z,9.49
2019-05-10T23:46:18.793Z,9.45
2019-05-10T23:48:47.181Z,9.40
2019-05-10T23:51:15.566Z,9.33
2019-05-10T23:53:43.994Z,9.22
2019-05-10T23:56:12.380Z,9.12
2019-05-10T23:58:40.760Z,9.03
